createdAt,value
2018-10-06T00:01:48.380Z,13.48
2018-10-06T00:04:17.718Z,13.41
2018-10-06T00:06:49.791Z,13.45
2018-10-06T00:09:21.077Z,13.58
2018-10-06T00:11:52.688Z,13.54
2018-10-06T00:14:24.545Z,13.49
2018-10-06T00:16:54.069Z,13.50
2018-10-06T00:19:23.454Z,13.52
2018-10-06T00:21:52.755Z,13.47
2018-10-06T00:24:22.230Z,13.18
2018-10-06T00:26:52.221Z,13.14
2018-10-06T00:29:23.746Z,13.29
2018-10-06T00:31:53.044Z,13.30
2018-10-06T00:34:24.707Z,13.17
2018-10-06T00:36:58.095Z,13.36
2018-10-06T00:39:27.374Z,13.25
2018-10-06T00:41:56.620Z,13.20
2018-10-06T00:44:25.902Z,13.26
2018-10-06T00:46:55.328Z,13.23
2018-10-06T00:49:24.643Z,13.30
2018-10-06T00:51:53.912Z,13.29
2018-10-06T00:54:23.186Z,13.39
2018-10-06T00:56:53.042Z,13.29
2018-10-06T00:59:22.435Z,13.45
2018-10-06T01:01:51.674Z,13.47
2018-10-06T01:04:23.020Z,13.41
2018-10-06T01:06:52.295Z,13.38
2018-10-06T01:09:21.544Z,13.42
2018-10-06T01:11:50.807Z,13.48
2018-10-06T01:14:20.048Z,13.45
2018-10-06T01:16:49.309Z,13.46
2018-10-06T01:19:18.798Z,13.48
2018-10-06T01:21:48.088Z,13.45
2018-10-06T01:24:17.310Z,13.41
2018-10-06T01:26:46.618Z,13.45
2018-10-06T01:29:16.679Z,13.55
2018-10-06T01:31:45.919Z,13.63
2018-10-06T01:34:15.197Z,13.69
2018-10-06T01:36:44.475Z,13.72
2018-10-06T01:39:13.718Z,13.60
2018-10-06T01:41:43.039Z,13.54
2018-10-06T01:44:12.308Z,13.47
2018-10-06T01:46:41.559Z,13.46
2018-10-06T01:49:10.854Z,13.46
2018-10-06T01:51:40.102Z,13.42
2018-10-06T01:54:09.346Z,13.28
2018-10-06T01:56:38.600Z,13.39
2018-10-06T01:59:07.975Z,13.32
2018-10-06T02:01:37.350Z,13.40
2018-10-06T02:04:06.964Z,13.22
2018-10-06T02:06:36.248Z,13.23
2018-10-06T02:09:06.417Z,13.34
2018-10-06T02:11:35.774Z,13.24
2018-10-06T02:14:05.183Z,13.33
2018-10-06T02:16:34.463Z,13.33
2018-10-06T02:19:03.839Z,13.24
2018-10-06T02:21:33.055Z,13.44
2018-10-06T02:24:02.973Z,13.37
2018-10-06T02:26:32.446Z,13.28
2018-10-06T02:29:01.672Z,13.15
2018-10-06T02:31:30.931Z,13.20
2018-10-06T02:34:00.307Z,13.09
2018-10-06T02:36:29.804Z,13.11
2018-10-06T02:38:59.075Z,13.06
2018-10-06T02:41:28.323Z,12.92
2018-10-06T02:43:57.541Z,13.01
2018-10-06T02:46:26.805Z,13.18
2018-10-06T02:48:56.144Z,13.17
2018-10-06T02:51:25.394Z,13.15
2018-10-06T02:53:54.643Z,13.00
2018-10-06T02:56:23.912Z,12.93
2018-10-06T02:58:53.179Z,12.92
2018-10-06T03:01:22.408Z,12.81
2018-10-06T03:03:51.703Z,12.93
2018-10-06T03:06:20.954Z,12.93
2018-10-06T03:08:51.038Z,13.03
2018-10-06T03:11:23.740Z,12.85
2018-10-06T03:13:53.012Z,12.83
2018-10-06T03:16:22.289Z,12.88
2018-10-06T03:18:51.638Z,12.85
2018-10-06T03:21:21.741Z,12.85
2018-10-06T03:23:51.616Z,12.73
2018-10-06T03:26:20.973Z,12.76
2018-10-06T03:28:50.205Z,12.82
2018-10-06T03:31:19.965Z,12.80
2018-10-06T03:33:49.598Z,12.82
2018-10-06T03:36:18.840Z,12.87
2018-10-06T03:38:48.107Z,12.79
2018-10-06T03:41:20.048Z,12.72
2018-10-06T03:43:49.251Z,12.73
2018-10-06T03:46:19.586Z,12.61
2018-10-06T03:48:49.742Z,12.56
2018-10-06T03:51:19.034Z,12.46
2018-10-06T03:53:49.337Z,12.43
2018-10-06T03:56:18.853Z,12.48
2018-10-06T03:58:48.161Z,12.46
2018-10-06T04:01:17.404Z,12.40
2018-10-06T04:03:46.719Z,12.53
2018-10-06T04:06:17.400Z,12.37
2018-10-06T04:08:46.624Z,12.38
2018-10-06T04:11:15.884Z,12.49
2018-10-06T04:13:45.104Z,12.19
2018-10-06T04:16:14.343Z,12.17
2018-10-06T04:18:43.850Z,12.00
2018-10-06T04:21:13.159Z,12.05
2018-10-06T04:23:42.422Z,12.12
2018-10-06T04:26:11.757Z,11.93
2018-10-06T04:28:40.981Z,12.01
2018-10-06T04:31:10.284Z,11.81
2018-10-06T04:33:39.691Z,11.74
2018-10-06T04:36:08.998Z,11.82
2018-10-06T04:38:38.240Z,11.95
2018-10-06T04:41:07.677Z,12.13
2018-10-06T04:43:36.918Z,12.01
2018-10-06T04:46:06.348Z,12.05
2018-10-06T04:48:35.686Z,12.05
2018-10-06T04:51:04.920Z,11.96
2018-10-06T04:53:34.181Z,11.98
2018-10-06T04:56:03.474Z,11.86
2018-10-06T04:58:32.730Z,11.90
2018-10-06T05:01:01.941Z,11.97
2018-10-06T05:03:31.285Z,11.77
2018-10-06T05:06:00.515Z,11.67
2018-10-06T05:08:29.782Z,11.26
2018-10-06T05:10:59.060Z,11.53
2018-10-06T05:13:28.290Z,11.42
2018-10-06T05:15:57.514Z,11.60
2018-10-06T05:18:26.799Z,11.64
2018-10-06T05:20:56.035Z,11.84
2018-10-06T05:23:25.332Z,11.87
2018-10-06T05:25:54.817Z,11.96
2018-10-06T05:28:24.041Z,12.02
2018-10-06T05:30:53.275Z,12.02
2018-10-06T05:33:22.635Z,12.09
2018-10-06T05:35:51.872Z,12.08
2018-10-06T05:38:21.122Z,12.17
2018-10-06T05:40:50.396Z,12.07
2018-10-06T05:43:19.627Z,12.11
2018-10-06T05:45:48.896Z,12.19
2018-10-06T05:48:18.219Z,12.26
2018-10-06T05:50:47.444Z,12.50
2018-10-06T05:53:16.699Z,12.74
2018-10-06T05:55:45.968Z,13.04
2018-10-06T05:58:15.211Z,13.16
2018-10-06T06:00:44.469Z,13.35
2018-10-06T06:03:13.774Z,13.65
2018-10-06T06:05:43.025Z,13.92
2018-10-06T06:08:12.542Z,14.26
2018-10-06T06:10:42.146Z,14.72
2018-10-06T06:13:11.394Z,15.03
2018-10-06T06:15:40.669Z,15.24
2018-10-06T06:18:09.942Z,15.60
2018-10-06T06:20:40.319Z,15.86
2018-10-06T06:23:09.559Z,16.35
2018-10-06T06:25:38.830Z,16.71
2018-10-06T06:28:08.081Z,16.86
2018-10-06T06:30:37.322Z,16.92
2018-10-06T06:33:06.861Z,17.26
2018-10-06T06:35:36.111Z,17.64
2018-10-06T06:38:05.358Z,18.10
2018-10-06T06:40:41.335Z,18.47
2018-10-06T06:43:10.574Z,19.45
2018-10-06T06:45:39.870Z,19.50
2018-10-06T06:48:09.274Z,20.09
2018-10-06T06:50:38.506Z,20.82
2018-10-06T06:53:07.744Z,21.75
2018-10-06T06:55:37.062Z,21.98
2018-10-06T06:58:06.326Z,21.11
2018-10-06T07:00:35.618Z,20.83
2018-10-06T07:03:04.885Z,21.69
2018-10-06T07:05:34.167Z,22.26
2018-10-06T07:08:03.370Z,22.82
2018-10-06T07:10:32.929Z,23.53
2018-10-06T07:13:02.201Z,23.85
2018-10-06T07:15:31.459Z,23.47
2018-10-06T07:18:00.741Z,24.10
2018-10-06T07:20:30.020Z,24.64
2018-10-06T07:22:59.316Z,25.05
2018-10-06T07:25:28.596Z,25.44
2018-10-06T07:28:04.386Z,25.77
2018-10-06T07:30:33.901Z,26.60
2018-10-06T07:33:03.180Z,27.03
2018-10-06T07:35:32.399Z,27.89
2018-10-06T07:38:01.739Z,28.15
2018-10-06T07:40:31.008Z,28.26
2018-10-06T07:43:00.248Z,27.08
2018-10-06T07:45:29.535Z,27.76
2018-10-06T07:47:58.798Z,27.71
2018-10-06T07:50:28.042Z,26.58
2018-10-06T07:52:57.644Z,27.37
2018-10-06T07:55:26.863Z,27.17
2018-10-06T07:57:56.146Z,26.79
2018-10-06T08:00:25.471Z,27.27
2018-10-06T08:02:54.722Z,27.48
2018-10-06T08:05:24.007Z,27.39
2018-10-06T08:07:53.404Z,27.39
2018-10-06T08:10:22.667Z,27.09
2018-10-06T08:12:52.002Z,27.13
2018-10-06T08:15:21.674Z,27.83
2018-10-06T08:17:50.960Z,28.88
2018-10-06T08:20:20.243Z,28.73
2018-10-06T08:22:49.518Z,29.71
2018-10-06T08:25:18.783Z,30.45
2018-10-06T08:27:48.038Z,29.88
2018-10-06T08:30:17.323Z,29.84
2018-10-06T08:32:46.671Z,30.27
2018-10-06T08:35:15.938Z,31.16
2018-10-06T08:37:45.398Z,30.42
2018-10-06T08:40:14.678Z,29.82
2018-10-06T08:42:44.031Z,31.18
2018-10-06T08:45:13.311Z,33.27
2018-10-06T08:47:42.597Z,34.65
2018-10-06T08:50:14.016Z,36.01
2018-10-06T08:52:43.292Z,35.67
2018-10-06T08:55:14.119Z,36.17
2018-10-06T08:57:43.607Z,35.82
2018-10-06T09:00:12.872Z,35.57
2018-10-06T09:02:42.195Z,36.15
2018-10-06T09:05:11.501Z,36.70
2018-10-06T09:07:40.767Z,36.43
2018-10-06T09:10:12.616Z,35.99
2018-10-06T09:12:42.835Z,34.68
2018-10-06T09:15:12.093Z,35.27
2018-10-06T09:17:41.578Z,34.32
2018-10-06T09:20:10.955Z,34.07
2018-10-06T09:22:40.241Z,35.33
2018-10-06T09:25:09.540Z,34.64
2018-10-06T09:27:38.821Z,33.08
2018-10-06T09:30:08.120Z,32.34
2018-10-06T09:32:37.434Z,33.67
2018-10-06T09:35:06.838Z,33.89
2018-10-06T09:37:36.174Z,32.97
2018-10-06T09:40:05.647Z,34.58
2018-10-06T09:42:35.042Z,34.31
2018-10-06T09:45:04.232Z,34.54
2018-10-06T09:47:33.555Z,36.14
2018-10-06T09:50:02.839Z,38.34
2018-10-06T09:52:32.161Z,37.42
2018-10-06T09:55:01.465Z,36.56
2018-10-06T09:57:30.737Z,36.56
2018-10-06T10:00:00.136Z,38.35
2018-10-06T10:02:36.541Z,36.92
2018-10-06T10:05:11.007Z,36.20
2018-10-06T10:07:40.342Z,35.96
2018-10-06T10:10:09.663Z,37.02
2018-10-06T10:12:39.043Z,38.08
2018-10-06T10:15:08.324Z,37.64
2018-10-06T10:17:37.767Z,39.61
2018-10-06T10:20:06.892Z,39.00
2018-10-06T10:22:38.028Z,39.19
2018-10-06T10:25:07.251Z,36.95
2018-10-06T10:27:36.519Z,38.21
2018-10-06T10:30:06.601Z,35.71
2018-10-06T10:32:36.863Z,36.49
2018-10-06T10:35:06.401Z,39.57
2018-10-06T10:37:35.790Z,38.71
2018-10-06T10:40:04.996Z,36.90
2018-10-06T10:42:37.085Z,38.28
2018-10-06T10:45:07.501Z,37.70
2018-10-06T10:47:36.742Z,38.85
2018-10-06T10:50:06.071Z,40.45
2018-10-06T10:52:35.423Z,41.89
2018-10-06T10:55:04.701Z,41.95
2018-10-06T10:57:34.901Z,41.10
2018-10-06T11:00:04.392Z,41.71
2018-10-06T11:02:33.532Z,41.92
2018-10-06T11:05:02.769Z,41.79
2018-10-06T11:07:32.285Z,42.92
2018-10-06T11:10:02.540Z,41.18
2018-10-06T11:12:31.803Z,41.78
2018-10-06T11:15:01.103Z,40.62
2018-10-06T11:17:30.404Z,40.45
2018-10-06T11:19:59.711Z,39.49
2018-10-06T11:22:29.019Z,38.63
2018-10-06T11:24:58.316Z,39.99
2018-10-06T11:27:27.600Z,41.48
2018-10-06T11:29:57.317Z,41.81
2018-10-06T11:32:26.599Z,40.43
2018-10-06T11:34:55.859Z,39.19
2018-10-06T11:37:25.252Z,39.09
2018-10-06T11:39:55.132Z,38.05
2018-10-06T11:42:24.411Z,39.00
2018-10-06T11:44:53.820Z,38.86
2018-10-06T11:47:23.100Z,38.12
2018-10-06T11:49:52.445Z,39.19
2018-10-06T11:52:22.083Z,40.81
2018-10-06T11:54:51.370Z,41.39
2018-10-06T11:57:20.623Z,41.78
2018-10-06T11:59:49.933Z,40.16
2018-10-06T12:02:19.215Z,40.33
2018-10-06T12:04:48.529Z,39.44
2018-10-06T12:07:17.832Z,35.84
2018-10-06T12:09:47.085Z,35.31
2018-10-06T12:12:16.326Z,36.84
2018-10-06T12:14:45.835Z,36.43
2018-10-06T12:17:15.117Z,37.78
2018-10-06T12:19:44.392Z,39.80
2018-10-06T12:22:13.698Z,39.77
2018-10-06T12:24:42.949Z,38.46
2018-10-06T12:27:12.250Z,38.34
2018-10-06T12:29:41.551Z,38.86
2018-10-06T12:32:10.820Z,40.55
2018-10-06T12:34:40.152Z,41.53
2018-10-06T12:37:09.543Z,40.18
2018-10-06T12:39:38.895Z,40.27
2018-10-06T12:42:08.209Z,38.43
2018-10-06T12:44:37.515Z,38.61
2018-10-06T12:47:06.782Z,37.95
2018-10-06T12:49:36.706Z,36.92
2018-10-06T12:52:06.064Z,35.53
2018-10-06T12:54:35.323Z,34.40
2018-10-06T12:57:04.686Z,33.69
2018-10-06T12:59:35.054Z,34.22
2018-10-06T13:02:04.327Z,36.48
2018-10-06T13:04:33.594Z,36.31
2018-10-06T13:07:02.919Z,37.49
2018-10-06T13:09:32.178Z,37.95
2018-10-06T13:12:01.472Z,38.37
2018-10-06T13:14:30.731Z,37.92
2018-10-06T13:17:00.063Z,38.23
2018-10-06T13:19:29.834Z,39.00
2018-10-06T13:21:59.272Z,38.78
2018-10-06T13:24:28.570Z,36.28
2018-10-06T13:26:57.897Z,37.37
2018-10-06T13:29:27.194Z,37.59
2018-10-06T13:31:56.573Z,37.25
2018-10-06T13:34:25.768Z,37.07
2018-10-06T13:36:55.043Z,36.98
2018-10-06T13:39:24.291Z,37.07
2018-10-06T13:41:53.527Z,35.68
2018-10-06T13:44:23.782Z,34.09
2018-10-06T13:46:53.109Z,32.52
2018-10-06T13:49:22.319Z,33.14
2018-10-06T13:51:51.611Z,34.84
2018-10-06T13:54:20.880Z,35.96
2018-10-06T13:56:50.467Z,36.94
2018-10-06T13:59:19.788Z,35.97
2018-10-06T14:01:51.324Z,35.47
2018-10-06T14:04:21.387Z,34.34
2018-10-06T14:06:50.667Z,33.88
2018-10-06T14:09:19.925Z,32.97
2018-10-06T14:11:51.758Z,33.76
2018-10-06T14:14:20.995Z,34.37
2018-10-06T14:16:50.263Z,35.38
2018-10-06T14:19:19.487Z,34.48
2018-10-06T14:21:49.560Z,31.77
2018-10-06T14:24:19.007Z,31.64
2018-10-06T14:26:48.288Z,32.23
2018-10-06T14:29:17.542Z,33.19
2018-10-06T14:31:46.797Z,34.03
2018-10-06T14:34:16.606Z,34.30
2018-10-06T14:36:45.856Z,34.18
2018-10-06T14:39:15.131Z,34.10
2018-10-06T14:41:44.426Z,33.77
2018-10-06T14:44:14.360Z,34.36
2018-10-06T14:46:43.859Z,34.48
2018-10-06T14:49:13.131Z,34.31
2018-10-06T14:51:42.375Z,34.21
2018-10-06T14:54:11.666Z,34.21
2018-10-06T14:56:41.926Z,33.81
2018-10-06T14:59:11.191Z,33.79
2018-10-06T15:01:40.505Z,33.69
2018-10-06T15:04:09.740Z,33.82
2018-10-06T15:06:39.011Z,33.92
2018-10-06T15:09:10.115Z,33.25
2018-10-06T15:11:39.387Z,33.14
2018-10-06T15:14:08.676Z,32.98
2018-10-06T15:16:37.967Z,32.86
2018-10-06T15:19:07.256Z,32.41
2018-10-06T15:21:36.548Z,31.88
2018-10-06T15:24:05.848Z,31.41
2018-10-06T15:26:35.135Z,30.20
2018-10-06T15:29:04.415Z,29.67
2018-10-06T15:31:35.336Z,28.94
2018-10-06T15:34:04.662Z,28.37
2018-10-06T15:36:33.950Z,27.88
2018-10-06T15:39:03.347Z,27.54
2018-10-06T15:41:32.670Z,27.07
2018-10-06T15:44:03.449Z,26.77
2018-10-06T15:46:32.766Z,26.56
2018-10-06T15:49:02.031Z,26.38
2018-10-06T15:51:31.375Z,26.41
2018-10-06T15:54:01.007Z,26.15
2018-10-06T15:56:30.308Z,26.00
2018-10-06T15:58:59.539Z,25.69
2018-10-06T16:01:28.816Z,25.57
2018-10-06T16:03:58.111Z,25.38
2018-10-06T16:06:27.359Z,25.27
2018-10-06T16:08:56.697Z,25.10
2018-10-06T16:11:26.666Z,24.86
2018-10-06T16:13:55.925Z,24.70
2018-10-06T16:16:25.459Z,24.67
2018-10-06T16:18:54.761Z,24.61
2018-10-06T16:21:24.109Z,24.46
2018-10-06T16:23:54.127Z,24.37
2018-10-06T16:26:24.477Z,24.09
2018-10-06T16:28:53.748Z,24.19
2018-10-06T16:31:22.996Z,24.25
2018-10-06T16:33:52.275Z,24.20
2018-10-06T16:36:21.580Z,24.06
2018-10-06T16:38:51.082Z,24.00
2018-10-06T16:41:20.441Z,23.94
2018-10-06T16:43:49.708Z,23.95
2018-10-06T16:46:27.036Z,23.83
2018-10-06T16:48:56.328Z,23.52
2018-10-06T16:51:25.606Z,23.55
2018-10-06T16:53:55.274Z,23.34
2018-10-06T16:56:24.554Z,23.28
2018-10-06T16:58:53.788Z,23.28
2018-10-06T17:01:23.169Z,23.04
2018-10-06T17:03:52.410Z,22.77
2018-10-06T17:06:21.756Z,22.53
2018-10-06T17:08:51.002Z,22.66
2018-10-06T17:11:20.401Z,22.74
2018-10-06T17:13:51.883Z,22.73
2018-10-06T17:16:21.178Z,22.75
2018-10-06T17:18:50.504Z,22.59
2018-10-06T17:21:19.783Z,22.72
2018-10-06T17:23:50.454Z,22.62
2018-10-06T17:26:19.745Z,22.65
2018-10-06T17:28:49.046Z,22.29
2018-10-06T17:31:18.383Z,22.26
2018-10-06T17:33:48.135Z,22.20
2018-10-06T17:36:17.631Z,22.13
2018-10-06T17:38:46.897Z,22.28
2018-10-06T17:41:16.160Z,22.14
2018-10-06T17:43:45.491Z,22.12
2018-10-06T17:46:14.762Z,22.09
2018-10-06T17:48:44.035Z,22.03
2018-10-06T17:51:13.387Z,21.92
2018-10-06T17:53:42.683Z,21.97
2018-10-06T17:56:12.643Z,21.87
2018-10-06T17:58:42.239Z,21.75
2018-10-06T18:01:11.537Z,21.75
2018-10-06T18:03:40.802Z,21.60
2018-10-06T18:06:10.107Z,21.62
2018-10-06T18:08:39.358Z,21.47
2018-10-06T18:11:08.678Z,21.53
2018-10-06T18:13:37.959Z,21.37
2018-10-06T18:16:07.355Z,21.26
2018-10-06T18:18:36.609Z,21.09
2018-10-06T18:21:07.100Z,21.01
2018-10-06T18:23:36.334Z,20.58
2018-10-06T18:26:05.701Z,20.91
2018-10-06T18:28:34.939Z,20.44
2018-10-06T18:31:04.215Z,20.59
2018-10-06T18:33:33.550Z,20.69
2018-10-06T18:36:02.958Z,20.44
2018-10-06T18:38:32.239Z,20.39
2018-10-06T18:41:01.570Z,20.36
2018-10-06T18:43:31.127Z,20.23
2018-10-06T18:46:00.242Z,20.41
2018-10-06T18:48:29.538Z,20.22
2018-10-06T18:50:58.869Z,20.31
2018-10-06T18:53:28.142Z,20.27
2018-10-06T18:55:57.461Z,20.28
2018-10-06T18:58:26.779Z,20.08
2018-10-06T19:00:56.346Z,19.97
2018-10-06T19:03:26.069Z,19.77
2018-10-06T19:05:55.884Z,19.64
2018-10-06T19:08:25.447Z,19.32
2018-10-06T19:10:56.116Z,19.56
2018-10-06T19:13:25.826Z,19.53
2018-10-06T19:15:55.960Z,19.62
2018-10-06T19:18:25.667Z,19.70
2018-10-06T19:20:55.341Z,19.59
2018-10-06T19:23:24.977Z,19.66
2018-10-06T19:25:54.733Z,19.45
2018-10-06T19:28:24.591Z,19.26
2018-10-06T19:30:55.758Z,19.21
2018-10-06T19:33:25.429Z,19.13
2018-10-06T19:35:55.056Z,19.03
2018-10-06T19:38:24.711Z,19.06
2018-10-06T19:40:54.437Z,18.78
2018-10-06T19:43:24.085Z,18.80
2018-10-06T19:45:53.727Z,18.86
2018-10-06T19:48:23.878Z,18.86
2018-10-06T19:50:53.480Z,18.53
2018-10-06T19:53:23.065Z,18.37
2018-10-06T19:55:52.787Z,18.49
2018-10-06T19:58:22.514Z,18.58
2018-10-06T20:00:52.134Z,18.59
2018-10-06T20:03:21.833Z,18.81
2018-10-06T20:05:51.467Z,18.75
2018-10-06T20:08:21.124Z,18.61
2018-10-06T20:10:52.120Z,18.75
2018-10-06T20:13:21.827Z,18.71
2018-10-06T20:15:51.466Z,18.74
2018-10-06T20:18:22.048Z,18.76
2018-10-06T20:20:52.233Z,18.79
2018-10-06T20:23:21.807Z,18.64
2018-10-06T20:25:51.178Z,18.70
2018-10-06T20:28:20.551Z,18.77
2018-10-06T20:30:49.872Z,18.66
2018-10-06T20:33:19.360Z,18.55
2018-10-06T20:35:48.656Z,18.60
2018-10-06T20:38:18.048Z,18.51
2018-10-06T20:40:49.404Z,18.22
2018-10-06T20:43:18.676Z,18.53
2018-10-06T20:45:47.946Z,18.40
2018-10-06T20:48:17.287Z,18.43
2018-10-06T20:50:46.585Z,18.32
2018-10-06T20:53:15.900Z,18.21
2018-10-06T20:55:45.438Z,18.31
2018-10-06T20:58:14.765Z,17.87
2018-10-06T21:00:44.092Z,17.94
2018-10-06T21:03:13.488Z,18.12
2018-10-06T21:05:42.793Z,18.03
2018-10-06T21:08:12.124Z,18.06
2018-10-06T21:10:41.447Z,17.95
2018-10-06T21:13:10.735Z,18.02
2018-10-06T21:15:40.030Z,17.99
2018-10-06T21:18:09.619Z,17.89
2018-10-06T21:20:38.919Z,17.99
2018-10-06T21:23:11.892Z,17.82
2018-10-06T21:25:41.203Z,17.88
2018-10-06T21:28:10.572Z,17.79
2018-10-06T21:30:41.458Z,17.70
2018-10-06T21:33:10.751Z,17.64
2018-10-06T21:35:40.087Z,17.54
2018-10-06T21:38:09.409Z,17.57
2018-10-06T21:40:38.741Z,17.62
2018-10-06T21:43:09.914Z,17.68
2018-10-06T21:45:39.255Z,17.64
2018-10-06T21:48:08.549Z,17.65
2018-10-06T21:50:37.933Z,17.55
2018-10-06T21:53:08.366Z,17.65
2018-10-06T21:55:38.636Z,17.72
2018-10-06T21:58:08.660Z,17.72
2018-10-06T22:00:38.214Z,17.71
2018-10-06T22:03:08.614Z,17.66
2018-10-06T22:05:37.968Z,17.41
2018-10-06T22:08:07.486Z,17.48
2018-10-06T22:10:36.769Z,17.41
2018-10-06T22:13:06.095Z,17.45
2018-10-06T22:15:35.445Z,17.52
2018-10-06T22:18:04.741Z,17.34
2018-10-06T22:20:34.035Z,17.29
2018-10-06T22:23:03.414Z,17.30
2018-10-06T22:25:32.731Z,17.12
2018-10-06T22:28:02.189Z,16.91
2018-10-06T22:30:31.475Z,16.77
2018-10-06T22:33:00.748Z,16.82
2018-10-06T22:35:30.010Z,16.98
2018-10-06T22:37:59.322Z,17.04
2018-10-06T22:40:28.603Z,17.06
2018-10-06T22:42:58.487Z,17.20
2018-10-06T22:45:27.972Z,17.17
2018-10-06T22:47:57.275Z,17.10
2018-10-06T22:50:26.554Z,17.06
2018-10-06T22:52:55.843Z,16.99
2018-10-06T22:55:25.118Z,17.01
2018-10-06T22:57:54.415Z,16.87
2018-10-06T23:00:23.711Z,17.05
2018-10-06T23:02:53.570Z,17.08
2018-10-06T23:05:22.882Z,17.08
2018-10-06T23:07:52.415Z,17.02
2018-10-06T23:10:21.737Z,17.32
2018-10-06T23:12:52.924Z,17.39
2018-10-06T23:15:22.212Z,17.25
2018-10-06T23:17:51.458Z,17.51
2018-10-06T23:20:20.696Z,17.59
2018-10-06T23:22:50.591Z,17.59
2018-10-06T23:25:19.843Z,17.63
2018-10-06T23:27:49.132Z,17.65
2018-10-06T23:30:18.902Z,17.84
2018-10-06T23:32:48.210Z,17.89
2018-10-06T23:35:17.466Z,17.96
2018-10-06T23:37:46.801Z,18.04
2018-10-06T23:40:17.004Z,18.09
2018-10-06T23:42:46.285Z,18.06
2018-10-06T23:45:16.511Z,18.04
2018-10-06T23:47:45.772Z,17.62
2018-10-06T23:50:15.053Z,17.68
2018-10-06T23:52:47.365Z,17.50
2018-10-06T23:55:17.322Z,17.57
2018-10-06T23:57:46.598Z,17.60
